LFPO/ORY METAR and TAF weather

Enter ICAO airport designator
Station Type Date Time Source
LFPO METAR 2019/08/19 01:30 UTC NOAA

LFPO 190130Z 24004KT 9999 BKN046 15/12 Q1016 NOSIG


Station Type Date Time Source
LFPO Decoded METAR 2019/08/19 01:30 UTC NOAA

Station name not available
Aug 18, 2019 - 09:30 PM EDT / 2019.08.19 0130 UTC
Wind: from the WSW (240 degrees) at 5 MPH (4 KT):0
Visibility: greater than 7 mile(s):0
Sky conditions: mostly cloudy
Temperature: 59 F (15 C)
Dew Point: 53 F (12 C)
Relative Humidity: 82%
Pressure (altimeter): 30.00 in. Hg (1016 hPa)
ob: LFPO 190130Z 24004KT 9999 BKN046 15/12 Q1016 NOSIG
cycle: 1

Station Type Date Time Source
LFPO TAF 2019/08/18 18:21 UTC NOAA

TAF LFPO 181700Z 1818/1924 26006KT 9999 SCT045

Example: see airport list